Time;durP1;ratioP1;P1;durP2;ratioP2;P2;SDS_P1;SDS_P2;PMS_P1;PMS_P2;Temp;Humidity;BMP_temperature;BMP_pressure;BME280_temperature;BME280_humidity;BME280_pressure;Samples;Min_cycle;Max_cycle;Signal;HPM_P1;HPM_P2
2022/08/29 00:02:01;;;;;;;;;;;13.60;99.90;;;;;;5071985;28;19995;-78
2022/08/29 00:04:26;;;;;;;;;;;13.40;99.90;;;;;;5070688;28;20304;-77
2022/08/29 00:06:53;;;;;;;;;;;13.40;99.90;;;;;;5072185;28;19916;-77
2022/08/29 00:09:18;;;;;;;;;;;13.50;99.90;;;;;;5070365;28;19908;-76
2022/08/29 00:11:44;;;;;;;;;;;13.50;99.90;;;;;;5071628;28;19966;-77
2022/08/29 00:14:09;;;;;;;;;;;13.50;99.90;;;;;;5070188;28;19955;-77
2022/08/29 00:16:35;;;;;;;;;;;13.50;99.90;;;;;;5071689;28;20271;-77
2022/08/29 00:19:00;;;;;;;;;;;13.50;99.90;;;;;;5071610;28;20019;-77
2022/08/29 00:21:26;;;;;;;;;;;13.40;99.90;;;;;;5071533;28;20376;-78
2022/08/29 00:23:51;;;;;;;;;;;13.30;99.90;;;;;;5071384;28;19946;-77
2022/08/29 00:26:17;;;;;;;;;;;13.20;99.90;;;;;;5071687;28;19951;-77
2022/08/29 00:28:42;;;;;;;;;;;13.30;99.90;;;;;;5071486;28;19916;-77
2022/08/29 00:31:08;;;;;;;;;;;13.20;99.90;;;;;;5071261;28;19919;-77
2022/08/29 00:33:34;;;;;;;;;;;13.20;99.90;;;;;;5071198;28;19908;-77
2022/08/29 00:35:59;;;;;;;;;;;13.10;99.90;;;;;;5071559;28;19913;-77
2022/08/29 00:38:25;;;;;;;;;;;13.20;99.90;;;;;;5071636;28;19952;-77
2022/08/29 00:40:51;;;;;;;;;;;13.10;99.90;;;;;;5071434;28;19960;-77
2022/08/29 00:43:19;;;;;;;;;;;13.10;99.90;;;;;;5065258;28;19909;-77
2022/08/29 00:46:03;;;;;;;;;;;13.00;99.90;;;;;;5071486;28;20365;-77
2022/08/29 00:48:29;;;;;;;;;;;13.00;99.90;;;;;;5071528;28;19909;-77
2022/08/29 00:50:57;;;;;;;;;;;13.00;99.90;;;;;;5071272;28;19915;-77
2022/08/29 00:53:27;;;;;;;;;;;13.10;99.90;;;;;;5071102;28;19966;-77
2022/08/29 00:55:53;;;;;;;;;;;13.10;99.90;;;;;;5071221;28;19909;-77
2022/08/29 00:58:25;;;;;;;;;;;13.10;99.90;;;;;;5071289;28;20362;-77
2022/08/29 01:00:51;;;;;;;;;;;13.00;99.90;;;;;;5068542;28;19909;-77
2022/08/29 01:03:16;;;;;;;;;;;12.90;99.90;;;;;;5070943;28;20066;-77
2022/08/29 01:05:42;;;;;;;;;;;12.90;99.90;;;;;;5070027;28;19916;-77
2022/08/29 01:08:07;;;;;;;;;;;12.80;99.90;;;;;;5071248;28;19966;-77
2022/08/29 01:13:17;;;;;;;;;;;12.70;99.90;;;;;;5070923;28;20018;-77
2022/08/29 01:15:44;;;;;;;;;;;12.60;99.90;;;;;;5069651;28;20324;-78
2022/08/29 01:18:11;;;;;;;;;;;12.60;99.90;;;;;;5070058;28;19916;-77
2022/08/29 01:20:51;;;;;;;;;;;12.60;99.90;;;;;;5071328;28;20258;-77
2022/08/29 01:23:25;;;;;;;;;;;12.60;99.90;;;;;;5049913;28;20627;-77
2022/08/29 01:25:51;;;;;;;;;;;12.60;99.90;;;;;;5064042;28;19920;-77
2022/08/29 01:28:27;;;;;;;;;;;12.50;99.90;;;;;;5071080;28;19912;-77
2022/08/29 01:30:59;;;;;;;;;;;12.50;99.90;;;;;;5072465;28;19909;-77
2022/08/29 01:33:25;;;;;;;;;;;12.50;99.90;;;;;;5074534;28;19936;-77
2022/08/29 01:35:50;;;;;;;;;;;12.40;99.90;;;;;;5074822;28;19916;-77
2022/08/29 01:38:26;;;;;;;;;;;12.40;99.90;;;;;;5074856;28;19909;-77
2022/08/29 01:40:54;;;;;;;;;;;12.30;99.90;;;;;;5075640;28;19916;-78
2022/08/29 01:43:20;;;;;;;;;;;12.30;99.90;;;;;;5074463;28;20252;-77
2022/08/29 01:45:45;;;;;;;;;;;12.30;99.90;;;;;;5075095;28;19984;-77
2022/08/29 01:48:11;;;;;;;;;;;12.30;99.90;;;;;;5074594;28;20308;-77
2022/08/29 01:50:36;;;;;;;;;;;12.20;99.90;;;;;;5074515;28;19909;-77
2022/08/29 01:53:02;;;;;;;;;;;12.20;99.90;;;;;;5074376;28;20156;-78
2022/08/29 01:55:27;;;;;;;;;;;12.20;99.90;;;;;;5074485;28;19909;-77
2022/08/29 01:57:53;;;;;;;;;;;12.20;99.90;;;;;;5075084;28;20360;-77
2022/08/29 02:00:18;;;;;;;;;;;12.20;99.90;;;;;;5074440;28;20381;-77
2022/08/29 02:02:44;;;;;;;;;;;12.20;99.90;;;;;;5074391;28;19908;-77
2022/08/29 02:05:09;;;;;;;;;;;12.20;99.90;;;;;;5074076;28;19913;-76
2022/08/29 02:07:35;;;;;;;;;;;12.10;99.90;;;;;;5071521;28;19971;-76
2022/08/29 02:10:00;;;;;;;;;;;12.10;99.90;;;;;;5072546;28;19939;-75
2022/08/29 02:12:26;;;;;;;;;;;12.10;99.90;;;;;;5074213;28;19909;-75
2022/08/29 02:14:52;;;;;;;;;;;12.10;99.90;;;;;;5067488;28;19912;-75
2022/08/29 02:17:18;;;;;;;;;;;12.00;99.90;;;;;;5072712;28;19915;-75
2022/08/29 02:19:44;;;;;;;;;;;12.00;99.90;;;;;;5073956;28;19909;-75
2022/08/29 02:22:10;;;;;;;;;;;12.00;99.90;;;;;;5072591;28;20289;-75
2022/08/29 02:24:36;;;;;;;;;;;12.00;99.90;;;;;;5073639;28;19912;-76
2022/08/29 02:27:01;;;;;;;;;;;11.90;99.90;;;;;;5073839;28;19912;-76
2022/08/29 02:29:27;;;;;;;;;;;11.90;99.90;;;;;;5073805;28;19978;-77
2022/08/29 02:31:53;;;;;;;;;;;12.00;99.90;;;;;;5073767;28;19909;-76
2022/08/29 02:34:19;;;;;;;;;;;11.90;99.90;;;;;;5072079;28;19915;-76
2022/08/29 02:36:44;;;;;;;;;;;11.90;99.90;;;;;;5073772;28;19909;-76
2022/08/29 02:39:10;;;;;;;;;;;11.90;99.90;;;;;;5071917;28;20003;-76
2022/08/29 02:41:35;;;;;;;;;;;11.80;99.90;;;;;;5072049;28;19908;-76
2022/08/29 02:44:01;;;;;;;;;;;11.80;99.90;;;;;;5073408;28;20003;-76
2022/08/29 02:46:27;;;;;;;;;;;11.80;99.90;;;;;;5073546;28;19909;-76
2022/08/29 02:48:53;;;;;;;;;;;11.90;99.90;;;;;;5073476;28;19909;-76
2022/08/29 02:51:20;;;;;;;;;;;11.80;99.90;;;;;;5072372;28;19931;-76
2022/08/29 02:53:46;;;;;;;;;;;11.80;99.90;;;;;;5071797;28;19909;-76
2022/08/29 02:56:12;;;;;;;;;;;11.70;99.90;;;;;;5072101;28;19919;-76
2022/08/29 02:58:37;;;;;;;;;;;11.80;99.90;;;;;;5069461;28;19912;-76
2022/08/29 03:01:03;;;;;;;;;;;11.70;99.90;;;;;;5069274;28;19948;-75
2022/08/29 03:03:28;;;;;;;;;;;11.70;99.90;;;;;;5072778;28;20383;-76
2022/08/29 03:05:55;;;;;;;;;;;11.70;99.90;;;;;;5073188;28;19912;-76
2022/08/29 03:08:21;;;;;;;;;;;11.60;99.90;;;;;;5073034;28;20362;-76
2022/08/29 03:10:46;;;;;;;;;;;11.60;99.90;;;;;;5075571;28;19924;-76
2022/08/29 03:13:12;;;;;;;;;;;11.60;99.90;;;;;;5072665;28;20353;-76
2022/08/29 03:15:38;;;;;;;;;;;11.70;99.90;;;;;;5072782;28;19912;-76
2022/08/29 03:18:03;;;;;;;;;;;11.80;99.90;;;;;;5071104;28;19999;-76
2022/08/29 03:20:29;;;;;;;;;;;11.70;99.90;;;;;;5072870;28;19958;-76
2022/08/29 03:22:55;;;;;;;;;;;11.70;99.90;;;;;;5072729;28;19916;-76
2022/08/29 03:25:21;;;;;;;;;;;11.60;99.90;;;;;;5072502;28;19912;-77
2022/08/29 03:27:47;;;;;;;;;;;11.50;99.90;;;;;;5072877;28;19912;-76
2022/08/29 03:30:13;;;;;;;;;;;11.50;99.90;;;;;;5072475;28;20431;-77
2022/08/29 03:32:39;;;;;;;;;;;11.60;99.90;;;;;;5071365;28;20362;-76
2022/08/29 03:35:06;;;;;;;;;;;11.50;99.90;;;;;;5072406;28;20003;-77
2022/08/29 03:37:32;;;;;;;;;;;11.50;99.90;;;;;;5072383;28;20424;-76
2022/08/29 03:39:58;;;;;;;;;;;11.50;99.90;;;;;;5070937;28;19931;-76
2022/08/29 03:42:23;;;;;;;;;;;11.40;99.90;;;;;;5072250;28;19913;-76
2022/08/29 03:44:49;;;;;;;;;;;11.30;99.90;;;;;;5071935;28;19913;-77
2022/08/29 03:47:14;;;;;;;;;;;11.40;99.90;;;;;;5072182;28;19940;-76
2022/08/29 03:49:40;;;;;;;;;;;11.40;99.90;;;;;;5071885;28;20286;-76
2022/08/29 03:52:05;;;;;;;;;;;11.40;99.90;;;;;;5070851;28;20384;-76
2022/08/29 03:54:31;;;;;;;;;;;11.40;99.90;;;;;;5070170;28;19916;-76
2022/08/29 03:56:57;;;;;;;;;;;11.40;99.90;;;;;;5070846;28;19915;-77
2022/08/29 03:59:22;;;;;;;;;;;11.40;99.90;;;;;;5070621;28;19913;-76
2022/08/29 04:01:48;;;;;;;;;;;11.40;99.90;;;;;;5071963;28;20381;-76
2022/08/29 04:07:00;;;;;;;;;;;11.40;99.90;;;;;;5067905;28;19931;-75
2022/08/29 04:09:26;;;;;;;;;;;11.40;99.90;;;;;;5075517;28;19909;-75
2022/08/29 04:11:51;;;;;;;;;;;11.40;99.90;;;;;;5072083;28;19927;-76
2022/08/29 04:14:19;;;;;;;;;;;11.30;99.90;;;;;;5071789;28;19995;-76
2022/08/29 04:16:47;;;;;;;;;;;11.30;99.90;;;;;;5071870;28;19908;-76
2022/08/29 04:19:12;;;;;;;;;;;11.30;99.90;;;;;;5071550;28;20435;-77
2022/08/29 04:21:38;;;;;;;;;;;11.20;99.90;;;;;;5072041;28;19912;-76
2022/08/29 04:24:03;;;;;;;;;;;11.10;99.90;;;;;;5071928;28;20011;-76
2022/08/29 04:26:29;;;;;;;;;;;11.20;99.90;;;;;;5071873;28;19920;-76
2022/08/29 04:28:54;;;;;;;;;;;11.20;99.90;;;;;;5070472;28;19909;-76
2022/08/29 04:31:20;;;;;;;;;;;11.10;99.90;;;;;;5071602;28;19916;-76
2022/08/29 04:33:47;;;;;;;;;;;11.10;99.90;;;;;;5071604;28;19909;-76
2022/08/29 04:36:13;;;;;;;;;;;11.10;99.90;;;;;;5071528;28;20387;-76
2022/08/29 04:38:38;;;;;;;;;;;11.20;99.90;;;;;;5070784;28;19994;-76
2022/08/29 04:41:05;;;;;;;;;;;11.20;99.90;;;;;;5071327;28;19908;-76
2022/08/29 04:43:30;;;;;;;;;;;11.20;99.90;;;;;;5071307;28;19943;-76
2022/08/29 04:45:56;;;;;;;;;;;11.10;99.90;;;;;;5071443;28;20388;-75
2022/08/29 04:48:21;;;;;;;;;;;11.10;99.90;;;;;;5071419;28;20401;-76
2022/08/29 04:50:57;;;;;;;;;;;11.20;99.90;;;;;;5071844;28;19908;-76
2022/08/29 04:53:23;;;;;;;;;;;11.30;99.90;;;;;;5070728;28;20266;-76
2022/08/29 04:56:03;;;;;;;;;;;11.20;99.90;;;;;;5071338;28;19956;-76
2022/08/29 04:58:29;;;;;;;;;;;11.30;99.90;;;;;;5070791;28;20388;-76
2022/08/29 05:00:55;;;;;;;;;;;11.20;99.90;;;;;;5071482;28;19909;-76
2022/08/29 05:03:21;;;;;;;;;;;11.20;99.90;;;;;;5070921;28;19934;-77
2022/08/29 05:06:00;;;;;;;;;;;11.20;99.90;;;;;;5072148;28;19965;-76
2022/08/29 05:08:26;;;;;;;;;;;11.20;99.90;;;;;;5070896;28;19916;-77
2022/08/29 05:10:52;;;;;;;;;;;11.40;99.90;;;;;;5075100;28;19920;-77
2022/08/29 05:13:18;;;;;;;;;;;11.40;99.90;;;;;;5075305;28;19932;-77
2022/08/29 05:15:46;;;;;;;;;;;11.40;99.90;;;;;;5076908;28;19935;-77
2022/08/29 05:18:12;;;;;;;;;;;11.50;99.90;;;;;;5075416;28;20278;-76
2022/08/29 05:20:38;;;;;;;;;;;11.50;99.90;;;;;;5075038;28;19954;-76
2022/08/29 05:23:04;;;;;;;;;;;11.60;99.90;;;;;;5075929;28;19909;-77
2022/08/29 05:25:29;;;;;;;;;;;11.60;99.90;;;;;;5075083;28;19958;-77
2022/08/29 05:27:55;;;;;;;;;;;11.60;99.90;;;;;;5075732;28;19915;-77
2022/08/29 05:30:20;;;;;;;;;;;11.60;99.90;;;;;;5075786;28;19909;-75
2022/08/29 05:32:46;;;;;;;;;;;11.70;99.90;;;;;;5075726;28;19916;-76
2022/08/29 05:35:12;;;;;;;;;;;11.80;99.90;;;;;;5075333;28;19913;-76
2022/08/29 05:37:37;;;;;;;;;;;11.80;99.90;;;;;;5070157;28;19909;-76
2022/08/29 05:40:03;;;;;;;;;;;11.90;99.90;;;;;;5074959;28;19908;-76
2022/08/29 05:42:29;;;;;;;;;;;11.90;99.90;;;;;;5074805;28;19955;-77
2022/08/29 05:44:55;;;;;;;;;;;12.00;99.90;;;;;;5074552;28;19916;-77
2022/08/29 05:47:21;;;;;;;;;;;12.20;99.90;;;;;;5074594;28;19934;-77
2022/08/29 05:49:47;;;;;;;;;;;12.40;99.90;;;;;;5074552;28;19932;-77
2022/08/29 05:52:14;;;;;;;;;;;12.50;99.90;;;;;;5074427;28;19936;-77
2022/08/29 05:54:40;;;;;;;;;;;12.50;99.90;;;;;;5074882;28;20397;-78
2022/08/29 05:57:07;;;;;;;;;;;12.60;99.90;;;;;;5073264;28;19909;-77
2022/08/29 05:59:34;;;;;;;;;;;12.70;99.90;;;;;;5078472;28;19916;-76
2022/08/29 06:02:00;;;;;;;;;;;12.70;99.90;;;;;;5074713;28;19999;-77
2022/08/29 06:04:25;;;;;;;;;;;12.80;99.90;;;;;;5073649;28;20293;-76
2022/08/29 06:06:51;;;;;;;;;;;13.00;99.90;;;;;;5072297;28;20003;-76
2022/08/29 06:09:17;;;;;;;;;;;13.10;99.90;;;;;;5073803;28;20293;-76
2022/08/29 06:11:45;;;;;;;;;;;13.10;99.90;;;;;;5074226;28;19919;-77
2022/08/29 06:14:11;;;;;;;;;;;13.30;99.90;;;;;;5073292;28;19908;-77
2022/08/29 06:16:38;;;;;;;;;;;13.50;99.90;;;;;;5071483;28;19912;-76
2022/08/29 06:19:04;;;;;;;;;;;13.70;99.90;;;;;;5069917;28;20530;-75
2022/08/29 06:21:29;;;;;;;;;;;13.80;99.90;;;;;;5067222;28;19995;-76
2022/08/29 06:23:55;;;;;;;;;;;13.80;99.90;;;;;;5074095;28;19915;-76
2022/08/29 06:26:20;;;;;;;;;;;13.90;99.90;;;;;;5068950;28;19935;-77
2022/08/29 06:28:46;;;;;;;;;;;14.10;99.90;;;;;;5076538;28;19909;-77
2022/08/29 06:31:16;;;;;;;;;;;14.30;99.90;;;;;;5078539;28;19912;-77
2022/08/29 06:33:42;;;;;;;;;;;14.30;99.90;;;;;;5068914;28;19909;-77
2022/08/29 06:36:08;;;;;;;;;;;14.50;99.90;;;;;;5052167;28;19991;-78
2022/08/29 06:38:34;;;;;;;;;;;14.50;99.90;;;;;;5071110;28;19908;-78
2022/08/29 06:41:07;;;;;;;;;;;14.70;99.90;;;;;;5072064;28;20441;-77
2022/08/29 06:43:33;;;;;;;;;;;14.80;99.90;;;;;;5068856;28;19916;-77
2022/08/29 06:45:59;;;;;;;;;;;15.00;99.90;;;;;;5066377;28;20336;-77
2022/08/29 06:48:24;;;;;;;;;;;15.10;99.90;;;;;;5063931;28;19934;-77
2022/08/29 06:50:51;;;;;;;;;;;15.20;99.90;;;;;;5077980;28;19947;-77
2022/08/29 06:53:17;;;;;;;;;;;15.30;99.90;;;;;;5070487;28;19908;-77
2022/08/29 06:55:42;;;;;;;;;;;15.40;99.90;;;;;;5072911;28;19955;-77
2022/08/29 06:58:08;;;;;;;;;;;15.60;99.90;;;;;;5068159;28;19963;-77
2022/08/29 07:00:33;;;;;;;;;;;15.80;99.90;;;;;;5073124;28;20246;-74
2022/08/29 07:02:59;;;;;;;;;;;15.90;99.90;;;;;;5072703;28;20022;-73
2022/08/29 07:05:24;;;;;;;;;;;16.10;99.90;;;;;;5072592;28;19912;-75
2022/08/29 07:07:50;;;;;;;;;;;16.10;99.90;;;;;;5072873;28;19987;-74
2022/08/29 07:10:17;;;;;;;;;;;16.30;99.90;;;;;;5072504;28;20290;-74
2022/08/29 07:12:42;;;;;;;;;;;16.50;99.90;;;;;;5072366;28;19923;-74
2022/08/29 07:15:08;;;;;;;;;;;16.60;99.90;;;;;;5071746;28;19908;-74
2022/08/29 07:17:34;;;;;;;;;;;16.70;99.90;;;;;;5076157;28;19916;-74
2022/08/29 07:19:59;;;;;;;;;;;16.90;99.90;;;;;;5072542;28;19924;-74
2022/08/29 07:22:25;;;;;;;;;;;17.00;99.90;;;;;;5072218;28;19908;-75
2022/08/29 07:24:51;;;;;;;;;;;17.30;99.90;;;;;;5070933;28;19916;-74
2022/08/29 07:27:16;;;;;;;;;;;17.70;99.90;;;;;;5072397;28;19909;-75
2022/08/29 07:29:42;;;;;;;;;;;18.50;99.90;;;;;;5071735;28;19992;-75
2022/08/29 07:32:07;;;;;;;;;;;19.20;99.90;;;;;;5071383;28;20378;-74
2022/08/29 07:34:33;;;;;;;;;;;19.90;99.90;;;;;;5071942;28;19948;-75
2022/08/29 07:36:58;;;;;;;;;;;20.20;99.90;;;;;;5072245;28;19943;-75
2022/08/29 07:39:24;;;;;;;;;;;20.90;99.90;;;;;;5072270;28;19987;-75
2022/08/29 07:41:49;;;;;;;;;;;21.30;99.90;;;;;;5070631;28;19909;-75
2022/08/29 07:44:16;;;;;;;;;;;22.40;99.90;;;;;;5067639;28;19979;-75
2022/08/29 07:46:42;;;;;;;;;;;23.00;99.90;;;;;;5068770;28;19908;-75
2022/08/29 07:49:08;;;;;;;;;;;24.00;99.90;;;;;;5070341;28;20376;-75
2022/08/29 07:51:34;;;;;;;;;;;24.70;99.90;;;;;;5071482;28;19991;-75
2022/08/29 07:53:59;;;;;;;;;;;25.30;99.20;;;;;;5071372;28;19909;-75
2022/08/29 07:56:26;;;;;;;;;;;25.60;97.80;;;;;;5071648;28;19961;-75
2022/08/29 07:58:53;;;;;;;;;;;25.70;96.20;;;;;;5071615;28;19920;-76
2022/08/29 08:01:18;;;;;;;;;;;25.70;96.20;;;;;;5068150;28;20054;-75
2022/08/29 08:03:44;;;;;;;;;;;25.70;93.70;;;;;;5074427;28;19958;-75
2022/08/29 08:06:10;;;;;;;;;;;25.10;96.20;;;;;;5070995;28;19974;-75
2022/08/29 08:08:36;;;;;;;;;;;25.40;94.80;;;;;;5071819;28;20369;-76
2022/08/29 08:11:06;;;;;;;;;;;25.70;93.60;;;;;;5071376;28;19920;-75
2022/08/29 08:13:32;;;;;;;;;;;26.00;91.50;;;;;;5070949;28;19912;-76
2022/08/29 08:15:58;;;;;;;;;;;26.40;92.90;;;;;;5070166;28;19913;-76
2022/08/29 08:18:25;;;;;;;;;;;26.70;92.10;;;;;;5070738;28;20153;-76
2022/08/29 08:20:51;;;;;;;;;;;26.90;88.70;;;;;;5071488;28;20316;-76
2022/08/29 08:23:17;;;;;;;;;;;26.80;88.10;;;;;;5071048;28;19915;-76
2022/08/29 08:25:42;;;;;;;;;;;26.30;87.50;;;;;;5064803;28;20392;-75
2022/08/29 08:28:08;;;;;;;;;;;26.70;90.20;;;;;;5069974;28;20272;-76
2022/08/29 08:30:33;;;;;;;;;;;27.50;85.30;;;;;;5071497;28;20008;-76
2022/08/29 08:32:59;;;;;;;;;;;28.00;85.50;;;;;;5071278;28;19909;-77
2022/08/29 08:35:25;;;;;;;;;;;28.50;82.60;;;;;;5071115;28;19908;-76
2022/08/29 08:37:51;;;;;;;;;;;28.50;83.40;;;;;;5070061;28;19916;-76
2022/08/29 08:40:21;;;;;;;;;;;29.00;77.30;;;;;;5071125;28;19909;-76
2022/08/29 08:42:48;;;;;;;;;;;28.40;80.00;;;;;;5070919;28;19909;-76
2022/08/29 08:45:17;;;;;;;;;;;28.80;77.20;;;;;;5066991;28;20003;-76
2022/08/29 08:47:46;;;;;;;;;;;28.70;77.70;;;;;;5065161;28;20050;-76
2022/08/29 08:50:15;;;;;;;;;;;29.30;79.40;;;;;;5071341;28;19952;-76
2022/08/29 08:52:57;;;;;;;;;;;29.40;78.20;;;;;;5071385;28;19909;-76
2022/08/29 08:55:32;;;;;;;;;;;29.70;72.30;;;;;;5051228;28;19913;-76
2022/08/29 08:58:01;;;;;;;;;;;29.70;73.20;;;;;;5071233;28;19912;-76
2022/08/29 09:00:29;;;;;;;;;;;29.40;71.90;;;;;;5071284;28;19912;-76
2022/08/29 09:03:10;;;;;;;;;;;29.90;71.30;;;;;;5071371;28;19912;-76
2022/08/29 09:05:36;;;;;;;;;;;30.00;71.50;;;;;;5070714;28;20376;-76
2022/08/29 09:08:10;;;;;;;;;;;29.50;71.70;;;;;;5069823;28;20048;-76
2022/08/29 09:10:42;;;;;;;;;;;29.50;71.90;;;;;;5070662;28;19917;-76
2022/08/29 09:13:26;;;;;;;;;;;29.30;70.30;;;;;;5067033;28;19996;-76
2022/08/29 09:15:53;;;;;;;;;;;30.10;70.30;;;;;;5066968;28;19944;-76
2022/08/29 09:18:28;;;;;;;;;;;30.40;70.40;;;;;;5076769;28;19909;-76
2022/08/29 09:20:53;;;;;;;;;;;29.90;68.30;;;;;;5067213;28;19932;-76
2022/08/29 09:23:26;;;;;;;;;;;31.00;66.90;;;;;;5070367;28;19908;-76
2022/08/29 09:25:51;;;;;;;;;;;31.20;64.20;;;;;;5070477;28;20377;-77
2022/08/29 09:28:17;;;;;;;;;;;31.20;65.50;;;;;;5070878;28;19913;-76
2022/08/29 09:30:45;;;;;;;;;;;31.20;66.30;;;;;;5070767;28;19919;-76
2022/08/29 09:33:15;;;;;;;;;;;31.20;66.30;;;;;;5069829;28;19915;-76
2022/08/29 09:35:40;;;;;;;;;;;30.50;67.50;;;;;;5072217;28;19908;-78
2022/08/29 09:38:06;;;;;;;;;;;31.20;62.40;;;;;;5070703;28;19958;-77
2022/08/29 09:40:52;;;;;;;;;;;30.60;61.20;;;;;;5070734;28;19963;-76
2022/08/29 09:43:19;;;;;;;;;;;31.40;65.60;;;;;;5070494;28;20468;-76
2022/08/29 09:46:04;;;;;;;;;;;32.20;59.60;;;;;;5070004;28;20478;-77
2022/08/29 09:48:30;;;;;;;;;;;32.40;58.90;;;;;;5067587;28;19908;-75
2022/08/29 09:51:09;;;;;;;;;;;31.40;61.80;;;;;;5070667;28;19908;-76
2022/08/29 09:53:35;;;;;;;;;;;31.50;65.50;;;;;;5073756;28;20269;-76
2022/08/29 09:56:08;;;;;;;;;;;31.20;62.20;;;;;;5066820;28;19913;-77
2022/08/29 09:58:35;;;;;;;;;;;32.20;61.00;;;;;;5070162;28;19908;-76
2022/08/29 10:01:00;;;;;;;;;;;33.20;59.30;;;;;;5073519;28;20293;-76
2022/08/29 10:03:28;;;;;;;;;;;32.20;58.70;;;;;;5073778;28;19909;-75
2022/08/29 10:06:06;;;;;;;;;;;32.50;57.80;;;;;;5073902;28;19919;-76
2022/08/29 10:08:35;;;;;;;;;;;32.40;57.10;;;;;;5074212;28;19909;-77
2022/08/29 10:11:03;;;;;;;;;;;32.60;57.20;;;;;;5074891;28;20377;-77
2022/08/29 10:13:47;;;;;;;;;;;32.30;55.30;;;;;;5074637;28;19908;-77
2022/08/29 10:16:12;;;;;;;;;;;32.90;58.00;;;;;;5074082;28;19966;-77
2022/08/29 10:18:49;;;;;;;;;;;33.00;57.10;;;;;;5073809;28;19916;-75
2022/08/29 10:21:35;;;;;;;;;;;32.80;55.00;;;;;;5068300;28;19944;-76
2022/08/29 10:24:10;;;;;;;;;;;32.50;54.80;;;;;;5073306;28;19931;-77
2022/08/29 10:26:44;;;;;;;;;;;32.60;57.40;;;;;;5074544;28;20358;-77
2022/08/29 10:29:25;;;;;;;;;;;33.80;52.20;;;;;;5074557;28;19909;-76
2022/08/29 10:32:09;;;;;;;;;;;33.30;53.20;;;;;;5054687;28;19929;-75
2022/08/29 10:34:47;;;;;;;;;;;33.60;53.30;;;;;;5075747;28;19915;-77
2022/08/29 10:37:17;;;;;;;;;;;34.10;54.00;;;;;;5075481;28;20322;-77
2022/08/29 10:39:55;;;;;;;;;;;33.80;51.10;;;;;;5079969;28;19908;-76
2022/08/29 10:42:24;;;;;;;;;;;32.80;54.80;;;;;;5075241;28;20525;-77
2022/08/29 10:44:55;;;;;;;;;;;33.20;52.70;;;;;;5075083;28;19967;-76
2022/08/29 10:47:30;;;;;;;;;;;34.30;52.40;;;;;;5070503;28;19951;-77
2022/08/29 10:50:09;;;;;;;;;;;32.70;53.60;;;;;;5071374;28;19940;-77
2022/08/29 10:52:50;;;;;;;;;;;32.20;55.00;;;;;;5074847;28;19915;-77
2022/08/29 10:55:31;;;;;;;;;;;31.70;55.60;;;;;;5074526;28;19915;-77
2022/08/29 10:58:02;;;;;;;;;;;32.60;54.80;;;;;;5077732;28;19966;-77
2022/08/29 11:00:57;;;;;;;;;;;33.60;52.50;;;;;;5071067;28;19915;-76
2022/08/29 11:03:30;;;;;;;;;;;33.70;52.00;;;;;;5032919;28;19920;-77
2022/08/29 11:06:06;;;;;;;;;;;34.10;51.80;;;;;;5075499;28;19920;-78
2022/08/29 11:08:55;;;;;;;;;;;33.70;52.00;;;;;;5075596;28;19916;-77
2022/08/29 11:11:22;;;;;;;;;;;33.70;50.70;;;;;;5066872;28;20370;-77
2022/08/29 11:13:51;;;;;;;;;;;32.70;49.90;;;;;;5075482;28;19908;-77
2022/08/29 11:16:21;;;;;;;;;;;32.10;51.10;;;;;;5073182;28;19935;-77
2022/08/29 11:19:08;;;;;;;;;;;31.40;52.80;;;;;;5081892;28;19915;-77
2022/08/29 11:21:37;;;;;;;;;;;33.00;52.90;;;;;;5080284;28;20350;-77
2022/08/29 11:24:03;;;;;;;;;;;33.60;50.20;;;;;;5076085;28;19918;-77
2022/08/29 11:26:31;;;;;;;;;;;32.90;50.40;;;;;;5073001;28;19921;-77
2022/08/29 11:29:15;;;;;;;;;;;32.80;51.50;;;;;;5076602;28;20358;-75
2022/08/29 11:31:59;;;;;;;;;;;33.50;50.10;;;;;;5071343;28;19908;-77
2022/08/29 11:34:25;;;;;;;;;;;33.90;49.90;;;;;;5076986;28;19908;-76
2022/08/29 11:37:09;;;;;;;;;;;33.50;48.60;;;;;;5078080;28;19908;-77
2022/08/29 11:39:53;;;;;;;;;;;33.10;48.70;;;;;;5073693;28;19908;-77
2022/08/29 11:42:21;;;;;;;;;;;33.40;49.20;;;;;;5072422;28;19920;-77
2022/08/29 11:44:52;;;;;;;;;;;33.90;47.80;;;;;;5075540;28;20009;-77
2022/08/29 11:47:29;;;;;;;;;;;34.90;46.40;;;;;;5078733;28;19987;-77
2022/08/29 11:50:00;;;;;;;;;;;35.60;46.00;;;;;;5074876;28;19913;-76
2022/08/29 11:52:27;;;;;;;;;;;34.80;48.20;;;;;;5077527;28;19913;-77
2022/08/29 11:54:53;;;;;;;;;;;32.90;47.00;;;;;;5074419;28;19977;-77
2022/08/29 11:57:18;;;;;;;;;;;32.50;51.80;;;;;;5077124;28;19932;-76
2022/08/29 11:59:47;;;;;;;;;;;34.70;48.10;;;;;;5077284;28;20499;-77
2022/08/29 12:02:31;;;;;;;;;;;34.30;45.10;;;;;;5078742;28;20015;-76
2022/08/29 12:04:59;;;;;;;;;;;32.20;49.50;;;;;;5074961;28;20423;-77
2022/08/29 12:07:40;;;;;;;;;;;33.00;47.10;;;;;;5075569;28;19962;-76
2022/08/29 12:10:23;;;;;;;;;;;31.80;48.80;;;;;;5052932;28;19917;-77
2022/08/29 12:13:07;;;;;;;;;;;31.10;50.20;;;;;;5074127;28;19908;-76
2022/08/29 12:15:33;;;;;;;;;;;29.30;55.10;;;;;;5072708;28;19912;-77
2022/08/29 12:18:12;;;;;;;;;;;27.90;57.80;;;;;;5074473;28;19967;-77
2022/08/29 12:20:40;;;;;;;;;;;27.80;60.90;;;;;;5073759;28;19916;-77
2022/08/29 12:23:05;;;;;;;;;;;28.00;59.70;;;;;;5074476;28;20277;-77
2022/08/29 12:25:53;;;;;;;;;;;27.80;57.50;;;;;;5072185;28;20003;-75
2022/08/29 12:28:29;;;;;;;;;;;27.00;60.60;;;;;;5068525;28;19908;-77
2022/08/29 12:30:58;;;;;;;;;;;27.40;61.00;;;;;;5070767;28;19908;-78
2022/08/29 12:33:35;;;;;;;;;;;26.60;60.60;;;;;;5070336;28;20050;-77
2022/08/29 12:36:00;;;;;;;;;;;26.30;63.90;;;;;;5071368;28;19908;-77
2022/08/29 12:38:58;;;;;;;;;;;26.80;65.10;;;;;;5071569;28;20338;-77
2022/08/29 12:41:33;;;;;;;;;;;26.50;61.80;;;;;;5033723;28;19912;-77
2022/08/29 12:44:01;;;;;;;;;;;26.80;64.60;;;;;;5071406;28;19917;-77
2022/08/29 12:46:29;;;;;;;;;;;27.00;65.20;;;;;;5065425;28;19908;-77
2022/08/29 12:49:01;;;;;;;;;;;27.30;60.00;;;;;;5075299;28;20373;-77
2022/08/29 12:51:48;;;;;;;;;;;26.50;62.70;;;;;;5072458;28;19908;-77
2022/08/29 12:54:13;;;;;;;;;;;26.60;63.30;;;;;;5050618;28;19932;-77
2022/08/29 12:56:41;;;;;;;;;;;26.50;65.30;;;;;;5071304;28;19909;-77
2022/08/29 12:59:13;;;;;;;;;;;26.70;65.90;;;;;;5062082;28;20324;-77
2022/08/29 13:01:39;;;;;;;;;;;27.00;62.90;;;;;;5065337;28;19908;-77
2022/08/29 13:04:11;;;;;;;;;;;26.60;63.10;;;;;;5070975;28;20393;-77
2022/08/29 13:06:49;;;;;;;;;;;26.80;64.10;;;;;;5056606;28;19999;-77
2022/08/29 13:09:25;;;;;;;;;;;26.70;63.30;;;;;;5070568;28;20361;-77
2022/08/29 13:12:04;;;;;;;;;;;26.40;63.90;;;;;;5070943;28;19909;-76
2022/08/29 13:14:30;;;;;;;;;;;26.20;65.80;;;;;;5070487;28;19908;-77
2022/08/29 13:16:55;;;;;;;;;;;26.70;64.60;;;;;;5074077;28;20057;-77
2022/08/29 13:19:21;;;;;;;;;;;26.90;63.20;;;;;;5072374;28;20266;-77
2022/08/29 13:21:47;;;;;;;;;;;26.60;64.20;;;;;;5068855;28;19916;-76
2022/08/29 13:24:18;;;;;;;;;;;26.20;65.00;;;;;;5070277;28;19920;-77
2022/08/29 13:26:57;;;;;;;;;;;25.90;65.50;;;;;;5070610;28;19988;-77
2022/08/29 13:29:28;;;;;;;;;;;26.00;65.80;;;;;;5074781;28;19913;-76
2022/08/29 13:32:10;;;;;;;;;;;26.20;67.00;;;;;;5068461;28;19915;-77
2022/08/29 13:34:36;;;;;;;;;;;26.20;68.00;;;;;;5055824;28;19940;-77
2022/08/29 13:37:06;;;;;;;;;;;26.40;66.10;;;;;;5075052;28;19956;-77
2022/08/29 13:39:33;;;;;;;;;;;26.30;67.30;;;;;;5074467;28;19995;-77
2022/08/29 13:42:02;;;;;;;;;;;26.30;66.10;;;;;;5074796;28;19909;-77
2022/08/29 13:44:29;;;;;;;;;;;26.30;65.80;;;;;;5074269;28;19920;-76
2022/08/29 13:46:58;;;;;;;;;;;26.10;65.00;;;;;;5066671;28;20134;-77
2022/08/29 13:49:24;;;;;;;;;;;26.30;64.50;;;;;;5079721;28;20276;-77
2022/08/29 13:51:50;;;;;;;;;;;26.20;65.90;;;;;;5074795;28;19909;-77
2022/08/29 13:54:16;;;;;;;;;;;26.00;66.10;;;;;;5074236;28;19954;-76
2022/08/29 13:56:42;;;;;;;;;;;26.00;64.40;;;;;;5074209;28;19912;-76
2022/08/29 13:59:10;;;;;;;;;;;25.80;65.90;;;;;;5074318;28;20478;-80
2022/08/29 14:01:35;;;;;;;;;;;26.00;66.00;;;;;;5069040;28;19912;-79
2022/08/29 14:04:01;;;;;;;;;;;26.10;64.50;;;;;;5073583;28;19908;-76
2022/08/29 14:06:27;;;;;;;;;;;26.20;65.70;;;;;;5073358;28;19909;-77
2022/08/29 14:08:53;;;;;;;;;;;26.30;65.10;;;;;;5072918;28;20011;-77
2022/08/29 14:11:19;;;;;;;;;;;26.60;63.10;;;;;;5074046;28;19939;-77
2022/08/29 14:13:46;;;;;;;;;;;28.20;61.30;;;;;;5072428;28;19909;-76
2022/08/29 14:16:12;;;;;;;;;;;31.80;53.00;;;;;;5073870;28;19912;-77
2022/08/29 14:18:38;;;;;;;;;;;33.20;48.30;;;;;;5078258;28;19908;-81
2022/08/29 14:21:04;;;;;;;;;;;33.10;48.10;;;;;;5072382;28;19908;-78
2022/08/29 14:23:30;;;;;;;;;;;32.60;49.00;;;;;;5073643;28;19908;-79
2022/08/29 14:25:56;;;;;;;;;;;33.80;47.90;;;;;;5072986;28;20270;-77
2022/08/29 14:28:21;;;;;;;;;;;34.40;46.20;;;;;;5073204;28;20015;-79
2022/08/29 14:30:47;;;;;;;;;;;34.30;47.20;;;;;;5073164;28;19966;-78